createdAt,value
2022-12-08T00:01:26.416Z,0.13
2022-12-08T00:03:55.390Z,-0.36
2022-12-08T00:06:46.815Z,-0.05
2022-12-08T00:09:22.033Z,-0.24
2022-12-08T00:11:53.580Z,-0.34
2022-12-08T00:14:27.268Z,-0.14
2022-12-08T00:16:55.463Z,-0.21
2022-12-08T00:19:23.408Z,0.06
2022-12-08T00:21:51.449Z,0.30
2022-12-08T00:24:18.950Z,0.12
2022-12-08T00:26:47.087Z,0.50
2022-12-08T00:29:17.594Z,0.26
2022-12-08T00:31:45.325Z,0.39
2022-12-08T00:34:14.607Z,0.19
2022-12-08T00:36:42.177Z,0.32
2022-12-08T00:39:11.331Z,0.64
2022-12-08T00:41:57.654Z,0.57
2022-12-08T00:44:25.441Z,0.22
2022-12-08T00:46:53.157Z,0.23
2022-12-08T00:49:20.788Z,0.53
2022-12-08T00:51:49.496Z,0.85
2022-12-08T00:54:17.480Z,0.83
2022-12-08T00:56:44.902Z,1.56
2022-12-08T00:59:12.316Z,2.15
2022-12-08T01:01:40.120Z,1.83
2022-12-08T01:04:10.261Z,0.67
2022-12-08T01:06:39.199Z,0.62
2022-12-08T01:09:07.708Z,0.63
2022-12-08T01:11:35.610Z,0.48
2022-12-08T01:14:03.453Z,0.95
2022-12-08T01:16:33.508Z,1.03
2022-12-08T01:19:01.696Z,0.97
2022-12-08T01:21:29.152Z,0.95
2022-12-08T01:23:59.560Z,0.68
2022-12-08T01:26:26.912Z,0.56
2022-12-08T01:28:54.671Z,0.46
2022-12-08T01:31:22.632Z,0.55
2022-12-08T01:33:50.446Z,0.50
2022-12-08T01:36:23.521Z,0.75
2022-12-08T01:38:51.905Z,0.57
2022-12-08T01:41:22.032Z,0.84
2022-12-08T01:43:57.056Z,0.78
2022-12-08T01:46:25.875Z,0.65
2022-12-08T01:48:57.310Z,0.70
2022-12-08T01:51:28.378Z,0.62
2022-12-08T01:53:56.153Z,0.42
2022-12-08T01:56:32.915Z,0.47
2022-12-08T01:59:00.671Z,0.28
2022-12-08T02:01:28.086Z,0.09
2022-12-08T02:03:59.482Z,-0.47
2022-12-08T02:06:28.990Z,0.04
2022-12-08T02:08:58.116Z,-0.17
2022-12-08T02:11:25.536Z,-0.31
2022-12-08T02:13:53.403Z,-0.72
2022-12-08T02:16:35.889Z,-0.47
2022-12-08T02:19:30.814Z,-0.02
2022-12-08T02:22:18.057Z,0.09
2022-12-08T02:25:08.016Z,0.01
2022-12-08T02:27:54.061Z,0.11
2022-12-08T02:30:47.614Z,0.05
2022-12-08T02:33:34.152Z,0.08
2022-12-08T02:36:16.220Z,0.34
2022-12-08T02:39:08.677Z,0.31
2022-12-08T02:41:35.924Z,0.16
2022-12-08T02:44:18.793Z,0.07
2022-12-08T02:47:27.751Z,0.12
2022-12-08T02:49:56.258Z,0.05
2022-12-08T02:52:23.556Z,0.32
2022-12-08T02:54:54.182Z,0.28
2022-12-08T02:57:36.660Z,0.41
2022-12-08T03:00:08.725Z,0.36
2022-12-08T03:02:42.701Z,0.33
2022-12-08T03:05:51.769Z,-0.29
2022-12-08T03:08:37.143Z,0.19
2022-12-08T03:11:20.309Z,0.11
2022-12-08T03:13:53.280Z,-0.07
2022-12-08T03:16:23.503Z,-0.27
2022-12-08T03:19:07.003Z,-0.11
2022-12-08T03:21:35.261Z,0.57
2022-12-08T03:24:05.731Z,0.49
2022-12-08T03:27:03.677Z,-0.20
2022-12-08T03:29:32.653Z,0.30
2022-12-08T03:32:06.895Z,0.47
2022-12-08T03:34:35.416Z,0.89
2022-12-08T03:37:02.813Z,1.44
2022-12-08T03:39:30.304Z,1.95
2022-12-08T03:41:57.981Z,2.29
2022-12-08T03:44:25.343Z,2.69
2022-12-08T03:46:52.725Z,2.92
2022-12-08T03:49:20.383Z,2.79
2022-12-08T03:51:47.764Z,2.74
2022-12-08T03:54:15.177Z,2.80
2022-12-08T03:56:42.854Z,3.09
2022-12-08T03:59:10.695Z,3.00
2022-12-08T04:01:38.083Z,2.90
2022-12-08T04:04:05.854Z,2.95
2022-12-08T04:06:33.447Z,2.85
2022-12-08T04:09:01.592Z,3.20
2022-12-08T04:11:29.252Z,3.46
2022-12-08T04:13:56.666Z,2.92
2022-12-08T04:16:25.310Z,3.11
2022-12-08T04:18:53.015Z,3.24
2022-12-08T04:21:20.737Z,3.14
2022-12-08T04:23:48.619Z,2.76
2022-12-08T04:26:16.565Z,2.39
2022-12-08T04:28:44.042Z,2.21
2022-12-08T04:31:11.500Z,1.79
2022-12-08T04:33:39.312Z,1.34
2022-12-08T04:36:07.391Z,1.41
2022-12-08T04:38:34.959Z,2.22
2022-12-08T04:41:02.691Z,2.99
2022-12-08T04:43:30.247Z,3.15
2022-12-08T04:45:57.599Z,3.51
2022-12-08T04:48:25.678Z,3.67
2022-12-08T04:50:53.059Z,3.71
2022-12-08T04:53:21.302Z,3.74
2022-12-08T04:55:49.754Z,3.65
2022-12-08T04:58:18.875Z,3.58
2022-12-08T05:00:47.433Z,3.53
2022-12-08T05:03:15.585Z,3.43
2022-12-08T05:05:43.535Z,2.70
2022-12-08T05:08:11.261Z,3.32
2022-12-08T05:10:39.327Z,3.34
2022-12-08T05:13:06.821Z,3.80
2022-12-08T05:15:34.195Z,3.56
2022-12-08T05:18:01.868Z,3.00
2022-12-08T05:20:29.239Z,2.56
2022-12-08T05:22:56.627Z,2.84
2022-12-08T05:25:24.374Z,3.25
2022-12-08T05:27:55.272Z,3.61
2022-12-08T05:30:29.758Z,3.78
2022-12-08T05:32:57.513Z,3.82
2022-12-08T05:35:24.877Z,4.02
2022-12-08T05:37:53.976Z,4.12
2022-12-08T05:40:21.652Z,4.02
2022-12-08T05:42:49.053Z,2.99
2022-12-08T05:45:16.747Z,2.25
2022-12-08T05:47:44.455Z,1.91
2022-12-08T05:50:11.834Z,2.10
2022-12-08T05:52:39.478Z,2.16
2022-12-08T05:55:07.044Z,3.23
2022-12-08T05:57:34.402Z,3.43
2022-12-08T06:00:02.747Z,3.08
2022-12-08T06:02:39.637Z,3.51
2022-12-08T06:05:07.926Z,3.73
2022-12-08T06:07:35.451Z,3.91
2022-12-08T06:10:03.666Z,3.94
2022-12-08T06:12:31.858Z,4.04
2022-12-08T06:14:59.225Z,4.35
2022-12-08T06:17:26.581Z,4.49
2022-12-08T06:19:54.239Z,4.47
2022-12-08T06:22:21.831Z,4.53
2022-12-08T06:24:49.303Z,4.22
2022-12-08T06:27:17.177Z,4.03
2022-12-08T06:29:44.579Z,3.63
2022-12-08T06:32:12.073Z,3.49
2022-12-08T06:34:39.785Z,4.00
2022-12-08T06:37:07.191Z,4.33
2022-12-08T06:39:34.575Z,4.25
2022-12-08T06:42:20.879Z,3.14
2022-12-08T06:44:48.666Z,2.67
2022-12-08T06:47:16.463Z,2.64
2022-12-08T06:49:43.888Z,3.04
2022-12-08T06:52:11.302Z,3.39
2022-12-08T06:54:39.112Z,3.61
2022-12-08T06:57:06.736Z,3.74
2022-12-08T06:59:34.108Z,3.89
2022-12-08T07:02:01.859Z,4.01
2022-12-08T07:04:29.406Z,3.82
2022-12-08T07:06:56.796Z,4.05
2022-12-08T07:09:24.751Z,4.03
2022-12-08T07:11:52.341Z,3.95
2022-12-08T07:14:23.661Z,3.95
2022-12-08T07:16:52.301Z,3.64
2022-12-08T07:19:20.076Z,3.76
2022-12-08T07:21:47.693Z,4.04
2022-12-08T07:24:15.366Z,4.15
2022-12-08T07:26:42.826Z,4.40
2022-12-08T07:29:10.812Z,4.38
2022-12-08T07:31:38.549Z,4.33
2022-12-08T07:34:05.966Z,4.36
2022-12-08T07:36:33.327Z,4.37
2022-12-08T07:39:01.068Z,4.34
2022-12-08T07:41:28.433Z,4.34
2022-12-08T07:43:56.618Z,4.47
2022-12-08T07:46:25.473Z,4.80
2022-12-08T07:48:54.156Z,4.73
2022-12-08T07:51:21.729Z,4.71
2022-12-08T07:53:54.067Z,4.78
2022-12-08T07:56:22.867Z,4.56
2022-12-08T07:58:50.767Z,4.74
2022-12-08T08:01:32.377Z,4.79
2022-12-08T08:04:02.228Z,4.75
2022-12-08T08:06:30.208Z,4.77
2022-12-08T08:08:57.668Z,4.69
2022-12-08T08:11:25.384Z,4.73
2022-12-08T08:13:52.868Z,4.83
2022-12-08T08:16:21.053Z,4.77
2022-12-08T08:18:50.491Z,4.81
2022-12-08T08:24:07.166Z,5.22
2022-12-08T08:26:34.744Z,5.43
2022-12-08T08:29:02.097Z,5.43
2022-12-08T08:31:29.851Z,5.46
2022-12-08T08:33:57.377Z,5.45
2022-12-08T08:36:25.064Z,5.58
2022-12-08T08:38:52.838Z,5.70
2022-12-08T08:41:20.512Z,5.53
2022-12-08T08:43:48.075Z,5.71
2022-12-08T08:46:16.092Z,5.83
2022-12-08T08:48:43.558Z,5.88
2022-12-08T08:51:12.728Z,5.67
2022-12-08T08:53:40.900Z,5.41
2022-12-08T08:56:13.288Z,5.75
2022-12-08T08:58:41.456Z,6.05
2022-12-08T09:01:08.885Z,6.12
2022-12-08T09:03:36.287Z,6.13
2022-12-08T09:06:04.081Z,6.28
2022-12-08T09:08:31.621Z,6.35
2022-12-08T09:10:59.237Z,6.63
2022-12-08T09:13:27.317Z,5.94
2022-12-08T09:15:54.745Z,6.18
2022-12-08T09:18:22.171Z,6.37
2022-12-08T09:20:49.797Z,6.55
2022-12-08T09:23:17.533Z,6.49
2022-12-08T09:25:45.687Z,6.47
2022-12-08T09:28:14.244Z,6.67
2022-12-08T09:31:00.645Z,6.30
2022-12-08T09:33:28.412Z,6.53
2022-12-08T09:35:55.822Z,6.23
2022-12-08T09:38:23.363Z,6.12
2022-12-08T09:40:53.352Z,5.83
2022-12-08T09:43:39.223Z,5.74
2022-12-08T09:46:11.963Z,6.23
2022-12-08T09:48:43.082Z,6.52
2022-12-08T09:51:11.633Z,6.97
2022-12-08T09:53:45.554Z,6.49
2022-12-08T09:56:22.479Z,6.59
2022-12-08T09:59:08.573Z,6.15
2022-12-08T10:01:41.974Z,6.25
2022-12-08T10:04:34.287Z,6.17
2022-12-08T10:07:30.894Z,6.71
2022-12-08T10:10:17.496Z,6.76
2022-12-08T10:13:00.227Z,6.84
2022-12-08T10:15:40.233Z,6.77
2022-12-08T10:18:15.381Z,6.58
2022-12-08T10:20:46.367Z,6.81
2022-12-08T10:23:16.282Z,6.66
2022-12-08T10:25:47.924Z,6.68
2022-12-08T10:28:15.581Z,6.78
2022-12-08T10:30:43.336Z,6.05
2022-12-08T10:33:18.998Z,6.23
2022-12-08T10:35:52.458Z,6.05
2022-12-08T10:38:27.567Z,5.97
2022-12-08T10:41:01.863Z,6.41
2022-12-08T10:43:30.151Z,6.40
2022-12-08T10:46:09.208Z,6.38
2022-12-08T10:48:37.024Z,5.80
2022-12-08T10:51:05.723Z,5.95
2022-12-08T10:53:34.395Z,6.23
2022-12-08T10:56:01.948Z,5.81
2022-12-08T10:58:36.129Z,5.97
2022-12-08T11:01:06.868Z,6.33
2022-12-08T11:03:37.937Z,6.37
2022-12-08T11:06:24.188Z,6.76
2022-12-08T11:08:59.553Z,6.92
2022-12-08T11:11:47.449Z,6.55
2022-12-08T11:14:33.242Z,5.91
2022-12-08T11:17:09.001Z,5.89
2022-12-08T11:19:41.063Z,6.03
2022-12-08T11:22:32.593Z,6.00
2022-12-08T11:25:03.458Z,6.00
2022-12-08T11:27:32.973Z,5.65
2022-12-08T11:30:01.397Z,5.85
2022-12-08T11:32:28.890Z,5.76
2022-12-08T11:35:00.910Z,5.98
2022-12-08T11:37:34.668Z,5.87
2022-12-08T11:40:07.788Z,6.14
2022-12-08T11:42:40.637Z,6.18
2022-12-08T11:45:14.093Z,6.17
2022-12-08T11:47:54.131Z,6.04
2022-12-08T11:50:34.163Z,6.66
2022-12-08T11:53:01.763Z,6.36
2022-12-08T11:55:37.210Z,6.18
2022-12-08T11:58:38.882Z,6.36
2022-12-08T12:01:17.209Z,6.28
2022-12-08T12:03:54.000Z,6.42
2022-12-08T12:06:54.773Z,6.28
2022-12-08T12:09:34.741Z,6.30
2022-12-08T12:12:16.760Z,6.54
2022-12-08T12:15:02.858Z,6.95
2022-12-08T12:17:36.564Z,6.44
2022-12-08T12:20:12.434Z,6.52
2022-12-08T12:22:40.215Z,6.45
2022-12-08T12:25:17.981Z,6.72
2022-12-08T12:27:46.006Z,6.82
2022-12-08T12:30:34.471Z,6.47
2022-12-08T12:33:02.324Z,6.23
2022-12-08T12:35:29.961Z,6.32
2022-12-08T12:38:04.797Z,6.41
2022-12-08T12:40:39.895Z,6.30
2022-12-08T12:43:10.293Z,6.25
2022-12-08T12:45:43.865Z,6.42
2022-12-08T12:48:22.200Z,6.32
2022-12-08T12:50:51.126Z,6.55
2022-12-08T12:53:19.028Z,6.58
2022-12-08T12:55:46.849Z,6.64
2022-12-08T12:58:23.710Z,6.55
2022-12-08T13:01:14.099Z,6.94
2022-12-08T13:03:48.570Z,6.79
2022-12-08T13:06:23.483Z,6.72
2022-12-08T13:08:53.529Z,6.58
2022-12-08T13:11:21.607Z,6.68
2022-12-08T13:14:01.396Z,6.58
2022-12-08T13:16:35.047Z,6.91
2022-12-08T13:19:14.060Z,6.35
2022-12-08T13:21:42.263Z,6.35
2022-12-08T13:24:25.266Z,6.56
2022-12-08T13:27:16.336Z,6.14
2022-12-08T13:29:44.140Z,6.10
2022-12-08T13:32:11.829Z,6.28
2022-12-08T13:34:50.700Z,6.55
2022-12-08T13:37:56.915Z,6.34
2022-12-08T13:40:26.234Z,6.39
2022-12-08T13:43:06.599Z,6.36
2022-12-08T13:57:30.676Z,6.33
2022-12-08T14:00:16.034Z,6.43
2022-12-08T14:02:48.254Z,6.34
2022-12-08T14:05:20.467Z,6.32
2022-12-08T14:07:51.766Z,6.22
2022-12-08T14:10:22.574Z,6.17
2022-12-08T14:12:56.364Z,6.23
2022-12-08T14:15:25.387Z,6.42
2022-12-08T14:17:57.335Z,6.69
2022-12-08T14:20:30.177Z,6.49
2022-12-08T14:22:59.442Z,6.30
2022-12-08T14:25:28.228Z,6.56
2022-12-08T14:27:59.926Z,6.78
2022-12-08T14:30:32.835Z,6.74
2022-12-08T14:33:01.535Z,6.37
2022-12-08T14:35:37.528Z,6.52
2022-12-08T14:38:09.901Z,6.31
2022-12-08T14:40:39.847Z,6.82
2022-12-08T14:43:10.377Z,6.60
2022-12-08T14:45:41.309Z,6.58
2022-12-08T14:48:26.848Z,6.67
2022-12-08T14:51:04.821Z,6.33
2022-12-08T14:53:39.742Z,6.01
2022-12-08T14:56:26.082Z,6.36
2022-12-08T14:59:13.199Z,6.25
2022-12-08T15:01:42.300Z,5.98
2022-12-08T15:04:12.672Z,6.34
2022-12-08T15:06:57.953Z,6.27
2022-12-08T15:09:38.661Z,6.27
2022-12-08T15:12:07.081Z,6.74
2022-12-08T15:14:37.142Z,6.32
2022-12-08T15:17:23.917Z,6.04
2022-12-08T15:19:59.105Z,5.86
2022-12-08T15:22:29.505Z,5.76
2022-12-08T15:24:57.569Z,5.96
2022-12-08T15:27:25.690Z,5.71
2022-12-08T15:29:53.631Z,6.08
2022-12-08T15:32:23.125Z,5.84
2022-12-08T15:34:50.568Z,5.89
2022-12-08T15:37:28.046Z,5.54
2022-12-08T15:39:55.774Z,5.54
2022-12-08T15:42:23.177Z,5.53
2022-12-08T15:44:50.589Z,5.81
2022-12-08T15:47:20.832Z,5.80
2022-12-08T15:49:49.728Z,5.70
2022-12-08T15:52:20.283Z,5.55
2022-12-08T15:54:49.102Z,5.68
2022-12-08T15:58:17.128Z,5.71
2022-12-08T16:00:51.235Z,5.57
2022-12-08T16:03:59.734Z,5.99
2022-12-08T16:07:26.831Z,6.27
2022-12-08T16:09:13.117Z,5.49
2022-12-08T16:12:09.105Z,5.86
2022-12-08T16:17:28.270Z,5.74
2022-12-08T16:19:56.166Z,5.59
2022-12-08T16:25:19.936Z,5.62
2022-12-08T16:28:29.518Z,5.69
2022-12-08T16:30:38.994Z,6.17
2022-12-08T16:33:06.905Z,5.93
2022-12-08T16:35:34.836Z,6.32
2022-12-08T16:38:05.328Z,6.30
2022-12-08T16:40:32.838Z,6.40
2022-12-08T16:43:00.512Z,6.63
2022-12-08T16:45:30.076Z,6.53
2022-12-08T16:48:00.155Z,6.26
2022-12-08T16:50:33.533Z,6.23
2022-12-08T16:53:06.987Z,6.32
2022-12-08T16:55:35.758Z,6.22
2022-12-08T16:58:03.735Z,6.03
2022-12-08T17:00:37.369Z,6.52
2022-12-08T17:03:08.469Z,5.84
2022-12-08T17:05:36.153Z,5.88
2022-12-08T17:08:03.700Z,6.15
2022-12-08T17:10:34.430Z,6.02
2022-12-08T17:13:02.516Z,6.00
2022-12-08T17:15:30.014Z,5.78
2022-12-08T17:17:58.104Z,6.15
2022-12-08T17:20:27.421Z,6.14
2022-12-08T17:22:57.483Z,5.98
2022-12-08T17:25:26.661Z,6.06
2022-12-08T17:27:54.881Z,6.26
2022-12-08T17:30:22.435Z,6.00
2022-12-08T17:32:52.714Z,5.63
2022-12-08T17:35:20.621Z,5.86
2022-12-08T17:37:48.605Z,5.91
2022-12-08T17:40:16.913Z,6.05
2022-12-08T17:42:45.201Z,5.79
2022-12-08T17:45:12.739Z,5.74
2022-12-08T17:47:40.580Z,5.32
2022-12-08T17:50:08.938Z,5.40
2022-12-08T17:52:37.633Z,5.15
2022-12-08T17:55:07.384Z,5.48
2022-12-08T17:57:35.317Z,5.38
2022-12-08T18:00:04.015Z,5.40
2022-12-08T18:02:39.586Z,5.46
2022-12-08T18:05:08.815Z,5.16
2022-12-08T18:07:37.818Z,5.51
2022-12-08T18:10:08.111Z,5.13
2022-12-08T18:12:36.430Z,5.41
2022-12-08T18:15:07.424Z,5.51
2022-12-08T18:17:35.407Z,5.63
2022-12-08T18:20:04.279Z,5.98
2022-12-08T18:22:32.612Z,6.07
2022-12-08T18:25:00.175Z,6.16
2022-12-08T18:27:28.746Z,6.12
2022-12-08T18:29:56.978Z,6.10
2022-12-08T18:32:24.825Z,6.23
2022-12-08T18:34:54.334Z,6.37
2022-12-08T18:37:22.392Z,6.46
2022-12-08T18:39:51.885Z,6.31
2022-12-08T18:42:23.416Z,6.39
2022-12-08T18:44:53.704Z,6.55
2022-12-08T18:47:23.429Z,6.18
2022-12-08T18:49:51.812Z,6.22
2022-12-08T18:52:28.138Z,6.42
2022-12-08T18:55:07.807Z,6.16
2022-12-08T18:57:38.898Z,6.10
2022-12-08T19:00:10.163Z,6.46
2022-12-08T19:02:39.072Z,6.72
2022-12-08T19:05:08.570Z,6.47
2022-12-08T19:07:40.105Z,6.38
2022-12-08T19:10:10.066Z,6.21
2022-12-08T19:12:38.694Z,6.43
2022-12-08T19:15:07.532Z,6.46
2022-12-08T19:17:37.191Z,6.45
2022-12-08T19:20:07.487Z,6.67
2022-12-08T19:22:35.746Z,6.48
2022-12-08T19:25:05.092Z,6.52
2022-12-08T19:27:34.642Z,6.54
2022-12-08T19:30:03.720Z,6.46
2022-12-08T19:32:32.180Z,6.75
2022-12-08T19:35:00.752Z,6.81
2022-12-08T19:37:29.914Z,6.95
2022-12-08T19:40:17.065Z,6.87
2022-12-08T19:43:05.918Z,6.72
2022-12-08T19:45:36.093Z,6.33
2022-12-08T19:48:05.729Z,6.45
2022-12-08T19:50:36.811Z,6.54
2022-12-08T19:53:17.349Z,6.76
2022-12-08T19:55:45.795Z,6.54
2022-12-08T19:58:16.680Z,6.57
2022-12-08T20:00:47.188Z,6.37
2022-12-08T20:03:20.544Z,6.12
2022-12-08T20:05:50.992Z,5.90
2022-12-08T20:08:20.043Z,5.86
2022-12-08T20:10:48.728Z,5.81
2022-12-08T20:13:36.381Z,5.68
2022-12-08T20:16:05.724Z,5.75
2022-12-08T20:18:38.626Z,5.67
2022-12-08T20:21:07.280Z,5.82
2022-12-08T20:23:38.503Z,5.79
2022-12-08T20:26:10.589Z,5.87
2022-12-08T20:28:39.712Z,6.23
2022-12-08T20:31:09.057Z,6.45
2022-12-08T20:33:37.207Z,6.73
2022-12-08T20:36:07.822Z,6.12
2022-12-08T20:38:37.111Z,6.12
2022-12-08T20:41:10.796Z,6.17
2022-12-08T20:43:39.962Z,6.43
2022-12-08T20:46:11.302Z,6.21
2022-12-08T20:48:40.678Z,6.32
2022-12-08T20:51:13.698Z,6.30
2022-12-08T20:53:42.128Z,6.46
2022-12-08T20:56:17.885Z,6.20
2022-12-08T20:58:46.410Z,6.14
2022-12-08T21:01:18.294Z,6.14
2022-12-08T21:03:47.627Z,6.05
2022-12-08T21:06:16.412Z,6.47
2022-12-08T21:08:43.947Z,6.43
2022-12-08T21:11:12.834Z,6.54
2022-12-08T21:13:40.769Z,6.49
2022-12-08T21:16:14.334Z,6.84
2022-12-08T21:18:42.300Z,6.39
2022-12-08T21:21:14.394Z,6.39
2022-12-08T21:23:43.287Z,6.69
2022-12-08T21:26:23.274Z,6.27
2022-12-08T21:28:51.230Z,6.32
2022-12-08T21:31:20.222Z,5.85
2022-12-08T21:33:48.537Z,6.43
2022-12-08T21:36:20.055Z,6.57
2022-12-08T21:38:47.987Z,6.60
2022-12-08T21:41:39.128Z,6.62
2022-12-08T21:44:09.576Z,6.45
2022-12-08T21:46:37.678Z,6.65
2022-12-08T21:49:05.405Z,5.94
2022-12-08T21:51:35.100Z,5.91
2022-12-08T21:54:03.037Z,5.97
2022-12-08T21:56:30.482Z,6.20
2022-12-08T21:58:58.033Z,6.32
2022-12-08T22:01:25.810Z,6.08
2022-12-08T22:03:54.339Z,6.33
2022-12-08T22:06:22.100Z,6.63
2022-12-08T22:08:49.649Z,6.39
2022-12-08T22:11:18.036Z,6.58
2022-12-08T22:13:45.437Z,6.65
2022-12-08T22:16:14.989Z,6.19
2022-12-08T22:18:42.858Z,6.42
2022-12-08T22:21:11.786Z,6.67
2022-12-08T22:23:39.296Z,6.25
2022-12-08T22:26:08.361Z,6.40
2022-12-08T22:28:39.023Z,6.25
2022-12-08T22:31:16.790Z,5.99
2022-12-08T22:33:44.763Z,6.33
2022-12-08T22:36:21.743Z,6.40
2022-12-08T22:38:49.919Z,6.50
2022-12-08T22:41:18.452Z,6.30
2022-12-08T22:43:47.004Z,6.39
2022-12-08T22:46:23.371Z,6.35
2022-12-08T22:48:51.860Z,6.56
2022-12-08T22:51:19.471Z,6.21
2022-12-08T22:53:47.495Z,6.44
2022-12-08T22:56:18.117Z,6.47
2022-12-08T22:58:45.775Z,6.72
2022-12-08T23:01:29.279Z,6.76
2022-12-08T23:03:57.773Z,6.66
2022-12-08T23:06:26.500Z,6.47
2022-12-08T23:08:54.359Z,6.38
2022-12-08T23:11:24.750Z,6.69
2022-12-08T23:13:52.254Z,6.71
2022-12-08T23:16:19.730Z,6.73
2022-12-08T23:18:47.842Z,6.92
2022-12-08T23:21:17.805Z,6.82
2022-12-08T23:23:45.646Z,6.57
2022-12-08T23:26:27.620Z,6.79
2022-12-08T23:28:56.379Z,6.77
2022-12-08T23:31:24.859Z,6.63
2022-12-08T23:33:52.959Z,6.76
2022-12-08T23:36:21.678Z,6.37
2022-12-08T23:38:49.541Z,6.12
2022-12-08T23:41:17.307Z,6.66
2022-12-08T23:43:46.398Z,6.34
2022-12-08T23:46:15.824Z,6.01
2022-12-08T23:48:43.734Z,6.20
2022-12-08T23:51:12.124Z,6.39
2022-12-08T23:53:40.164Z,6.30
2022-12-08T23:56:09.858Z,6.65
2022-12-08T23:58:37.764Z,6.70
